Time;durP1;ratioP1;P1;durP2;ratioP2;P2;SDS_P1;SDS_P2;PMS_P1;PMS_P2;Temp;Humidity;BMP_temperature;BMP_pressure;BME280_temperature;BME280_humidity;BME280_pressure;Samples;Min_cycle;Max_cycle;Signal;HPM_P1;HPM_P2
2023/01/22 00:01:14;;;;;;;18.50;7.60;;;;;;;2.57;75.35;100651.43;81969;1297;3012861;-63
2023/01/22 00:03:41;;;;;;;20.80;8.30;;;;;;;2.45;75.54;100649.64;81934;1297;3011383;-63
2023/01/22 00:06:09;;;;;;;20.30;7.90;;;;;;;2.29;75.63;100651.84;80706;1297;3026008;-63
2023/01/22 00:08:36;;;;;;;18.00;7.90;;;;;;;2.11;76.34;100652.83;81938;1297;3012840;-63
2023/01/22 00:11:03;;;;;;;18.90;7.10;;;;;;;1.94;76.64;100650.20;81909;1297;3011359;-63
2023/01/22 00:13:33;;;;;;;15.70;7.10;;;;;;;1.81;77.51;100647.50;80685;1297;3051501;-63
2023/01/22 00:16:00;;;;;;;20.00;7.80;;;;;;;1.69;78.35;100649.11;81813;1300;3012582;-63
2023/01/22 00:18:26;;;;;;;20.20;7.90;;;;;;;1.58;78.39;100650.73;81934;1297;3011582;-64
2023/01/22 00:20:55;;;;;;;19.10;7.00;;;;;;;1.49;78.61;100656.13;80684;1297;3056212;-64
2023/01/22 00:23:22;;;;;;;16.90;7.10;;;;;;;1.47;79.13;100658.02;81915;1297;3012499;-64
2023/01/22 00:25:49;;;;;;;16.30;7.60;;;;;;;1.40;79.13;100664.27;81875;1297;3011587;-63
2023/01/22 00:28:17;;;;;;;14.70;7.00;;;;;;;1.39;79.66;100667.21;80675;1297;3026644;-63
2023/01/22 00:30:43;;;;;;;19.00;7.60;;;;;;;1.36;79.96;100662.03;81895;1298;3019088;-63
2023/01/22 00:33:10;;;;;;;17.40;7.10;;;;;;;1.39;80.06;100666.52;81858;1297;3011414;-63
2023/01/22 00:35:38;;;;;;;18.60;7.90;;;;;;;1.37;80.08;100664.45;80665;1297;3025944;-63
2023/01/22 00:38:05;;;;;;;16.60;6.50;;;;;;;1.29;80.55;100667.25;81948;1297;3012958;-63
2023/01/22 00:40:32;;;;;;;12.30;5.50;;;;;;;1.84;79.68;100672.01;81940;1297;3011398;-63
2023/01/22 00:43:00;;;;;;;13.50;5.20;;;;;;;2.61;76.97;100667.30;80654;1297;3051281;-63
2023/01/22 00:45:29;;;;;;;15.10;6.20;;;;;;;2.81;75.98;100665.23;81947;1297;3012773;-64
2023/01/22 00:47:58;;;;;;;14.10;6.60;;;;;;;2.57;75.62;100663.20;81409;1297;3011084;-64
2023/01/22 00:50:25;;;;;;;16.60;7.30;;;;;;;2.43;76.03;100665.05;81969;1297;3012758;-63
2023/01/22 00:52:52;;;;;;;18.00;8.10;;;;;;;2.30;76.79;100670.16;81939;1297;3011390;-63
2023/01/22 00:55:20;;;;;;;16.70;7.00;;;;;;;2.18;76.81;100666.80;80639;1300;3052642;-63
2023/01/22 00:57:46;;;;;;;17.50;7.30;;;;;;;1.97;77.65;100665.89;82009;1300;3018477;-63
2023/01/22 01:00:13;;;;;;;22.10;8.80;;;;;;;1.79;78.26;100660.81;81986;1296;3011427;-63
2023/01/22 01:05:29;;;;;;;14.30;6.20;;;;;;;1.80;79.01;100661.33;80819;1295;3051941;-64
2023/01/22 01:07:56;;;;;;;17.30;7.60;;;;;;;1.77;78.86;100659.09;82023;1295;3018165;-64
2023/01/22 01:10:23;;;;;;;17.20;7.30;;;;;;;1.65;79.27;100656.21;82051;1295;3011021;-63
2023/01/22 01:12:51;;;;;;;19.90;7.60;;;;;;;1.60;79.79;100660.55;80725;1295;3025760;-64
2023/01/22 01:15:19;;;;;;;18.90;7.00;;;;;;;1.65;79.81;100659.15;81995;1295;3011198;-63
2023/01/22 01:17:46;;;;;;;17.60;7.30;;;;;;;1.64;79.96;100659.50;82077;1295;3011466;-63
2023/01/22 01:20:14;;;;;;;17.40;7.20;;;;;;;1.53;80.06;100663.18;80729;1295;3051335;-63
2023/01/22 01:22:41;;;;;;;19.30;6.60;;;;;;;1.49;80.59;100668.55;82051;1295;3012942;-63
2023/01/22 01:25:08;;;;;;;15.80;5.50;;;;;;;1.42;80.76;100673.06;82044;1295;3011319;-63
2023/01/22 01:27:36;;;;;;;13.40;5.00;;;;;;;1.83;80.21;100672.00;80682;1296;3050037;-64
2023/01/22 01:30:03;;;;;;;15.40;6.10;;;;;;;2.49;77.91;100678.15;82045;1295;3017997;-63
2023/01/22 01:32:31;;;;;;;17.90;7.00;;;;;;;2.50;76.79;100677.45;81955;1298;3011444;-64
2023/01/22 01:34:59;;;;;;;16.50;6.40;;;;;;;2.51;77.11;100682.45;80742;1295;3050797;-63
2023/01/22 01:37:25;;;;;;;16.30;6.30;;;;;;;2.44;77.34;100688.90;82020;1295;3013155;-63
2023/01/22 01:39:52;;;;;;;16.60;6.60;;;;;;;2.23;77.41;100690.09;82037;1295;3011360;-63
2023/01/22 01:42:25;;;;;;;12.50;6.40;;;;;;;2.16;78.25;100688.77;80756;1295;3026610;-63
2023/01/22 01:45:29;;;;;;;18.40;6.40;;;;;;;2.07;78.45;100683.98;81962;1295;3011295;-63
2023/01/22 01:48:22;;;;;;;13.60;6.10;;;;;;;2.00;78.83;100684.53;80734;1298;3051381;-63
2023/01/22 01:51:13;;;;;;;14.10;5.80;;;;;;;1.95;78.86;100679.89;80704;1295;3068723;-63
2023/01/22 01:53:42;;;;;;;14.00;6.20;;;;;;;1.90;79.20;100675.77;80711;1295;3051652;-64
2023/01/22 01:56:11;;;;;;;19.10;7.40;;;;;;;1.65;79.75;100676.77;81909;1295;3012864;-63
2023/01/22 01:58:40;;;;;;;19.20;6.50;;;;;;;1.74;80.68;100673.27;80651;1295;3052647;-63
2023/01/22 02:01:13;;;;;;;18.20;6.80;;;;;;;1.76;80.49;100673.78;81914;1298;3011315;-63
2023/01/22 02:03:41;;;;;;;13.40;6.50;;;;;;;1.76;80.40;100669.80;80768;1295;3051098;-63
2023/01/22 02:06:11;;;;;;;17.90;6.80;;;;;;;1.77;80.50;100669.46;82006;1297;3012470;-63
2023/01/22 02:08:40;;;;;;;19.80;7.40;;;;;;;1.65;80.66;100671.41;80780;1295;3056001;-63
2023/01/22 02:11:07;;;;;;;20.10;6.90;;;;;;;1.66;81.14;100678.49;80781;1295;3012768;-63
2023/01/22 02:13:34;;;;;;;15.20;5.90;;;;;;;2.14;80.07;100678.91;82020;1295;3011146;-63
2023/01/22 02:16:04;;;;;;;17.40;7.10;;;;;;;2.80;77.86;100674.41;80671;1304;3051738;-63
2023/01/22 02:18:31;;;;;;;14.50;6.70;;;;;;;3.02;76.66;100670.74;81998;1297;3011201;-63
2023/01/22 02:21:00;;;;;;;17.10;7.30;;;;;;;3.10;76.57;100669.62;81485;1300;3011184;-63
2023/01/22 02:23:28;;;;;;;20.90;8.30;;;;;;;2.98;76.22;100667.66;81988;1295;3018149;-63
2023/01/22 02:25:56;;;;;;;19.70;10.00;;;;;;;2.70;76.47;100670.18;82024;1295;3011035;-63
2023/01/22 02:28:24;;;;;;;19.20;8.60;;;;;;;2.55;77.07;100666.67;80613;1302;3052757;-63
2023/01/22 02:30:53;;;;;;;21.30;9.40;;;;;;;2.45;77.30;100668.14;81982;1295;3011389;-63
2023/01/22 02:33:22;;;;;;;24.40;8.80;;;;;;;2.34;77.78;100667.88;81515;1300;3011402;-63
2023/01/22 02:35:49;;;;;;;20.00;10.10;;;;;;;2.26;78.03;100666.40;82014;1297;3012290;-64
2023/01/22 02:38:17;;;;;;;19.60;8.70;;;;;;;2.16;78.70;100665.08;81966;1295;3011188;-63
2023/01/22 02:40:47;;;;;;;21.90;9.50;;;;;;;2.19;78.98;100663.33;80765;1295;3056274;-63
2023/01/22 02:43:16;;;;;;;22.30;9.70;;;;;;;2.20;78.88;100664.52;81975;1295;3011145;-63
2023/01/22 02:45:47;;;;;;;21.80;9.80;;;;;;;2.16;78.88;100662.98;80722;1297;3052282;-63
2023/01/22 02:48:13;;;;;;;25.90;11.30;;;;;;;2.05;79.30;100662.04;81988;1300;3018243;-63
2023/01/22 02:50:40;;;;;;;23.50;11.30;;;;;;;2.00;80.27;100662.41;82011;1296;3011580;-63
2023/01/22 02:53:08;;;;;;;26.00;11.20;;;;;;;2.11;79.87;100661.14;80744;1295;3026254;-63
2023/01/22 02:55:37;;;;;;;29.30;11.50;;;;;;;2.05;79.88;100659.61;82062;1295;3012737;-63
2023/01/22 02:58:04;;;;;;;21.60;10.60;;;;;;;2.03;79.90;100656.00;82000;1295;3011231;-63
2023/01/22 03:00:33;;;;;;;26.90;10.70;;;;;;;2.02;80.05;100658.60;80718;1295;3052280;-62
2023/01/22 03:03:06;;;;;;;20.40;7.40;;;;;;;2.46;79.24;100658.80;82040;1296;3018935;-63
2023/01/22 03:05:34;;;;;;;27.10;8.90;;;;;;;3.13;76.74;100655.55;80764;1298;3051401;-63
2023/01/22 03:08:03;;;;;;;21.30;9.80;;;;;;;3.37;75.54;100659.96;81973;1298;3011390;-63
2023/01/22 03:10:35;;;;;;;19.50;10.00;;;;;;;3.37;75.49;100655.46;80762;1294;3051612;-63
2023/01/22 03:21:21;;;;;;;21.10;10.50;;;;;;;2.76;76.59;100675.65;80755;1298;3052128;-64
2023/01/22 03:23:53;;;;;;;22.70;11.70;;;;;;;2.71;77.17;100681.59;82006;1298;3012758;-64
2023/01/22 03:26:22;;;;;;;25.60;11.00;;;;;;;2.61;77.44;100677.17;80755;1295;3067758;-64
2023/01/22 03:28:49;;;;;;;27.80;11.30;;;;;;;2.48;77.68;100679.19;82006;1295;3013232;-64
2023/01/22 03:31:16;;;;;;;21.10;10.20;;;;;;;2.56;78.04;100680.17;82054;1295;3011463;-64
2023/01/22 03:33:45;;;;;;;24.80;10.80;;;;;;;2.57;77.88;100681.55;80778;1295;3053118;-64
2023/01/22 03:36:12;;;;;;;22.10;10.90;;;;;;;2.57;77.69;100685.17;82003;1297;3012772;-63
2023/01/22 03:38:44;;;;;;;20.90;10.40;;;;;;;2.50;77.54;100684.71;80725;1301;3051556;-64
2023/01/22 03:41:14;;;;;;;25.10;11.60;;;;;;;2.43;78.00;100685.80;82023;1298;3011465;-64
2023/01/22 03:43:44;;;;;;;23.50;10.60;;;;;;;2.42;77.94;100685.64;80758;1295;3050451;-63
2023/01/22 03:46:17;;;;;;;25.50;11.50;;;;;;;2.46;77.90;100683.87;81996;1295;3011024;-64
2023/01/22 03:48:49;;;;;;;26.90;11.80;;;;;;;2.43;78.23;100686.52;80786;1295;3049025;-65
2023/01/22 03:51:16;;;;;;;27.00;11.30;;;;;;;2.38;78.43;100684.45;82002;1295;3012416;-64
2023/01/22 03:53:46;;;;;;;31.60;12.00;;;;;;;2.36;78.39;100688.09;81478;1295;3011310;-63
2023/01/22 03:56:15;;;;;;;24.10;11.30;;;;;;;2.37;78.18;100688.27;82009;1298;3012832;-64
2023/01/22 03:58:44;;;;;;;25.00;11.10;;;;;;;2.39;78.06;100692.23;81447;1298;3011398;-63
2023/01/22 04:01:12;;;;;;;24.40;11.20;;;;;;;2.43;77.93;100692.90;82005;1297;3018691;-63
2023/01/22 04:03:39;;;;;;;25.50;10.90;;;;;;;2.49;77.56;100694.41;81993;1295;3011292;-63
2023/01/22 04:06:08;;;;;;;16.70;7.30;;;;;;;3.00;76.13;100694.13;80756;1295;3049348;-64
2023/01/22 04:08:35;;;;;;;17.30;8.40;;;;;;;3.74;74.00;100694.33;81938;1295;3011243;-64
2023/01/22 04:11:02;;;;;;;21.20;9.80;;;;;;;3.70;72.57;100696.30;82006;1295;3011225;-64
2023/01/22 04:13:32;;;;;;;22.20;10.80;;;;;;;3.59;72.83;100696.95;80736;1298;3051864;-64
2023/01/22 04:15:59;;;;;;;21.80;10.60;;;;;;;3.51;73.32;100700.85;82030;1298;3012685;-64
2023/01/22 04:18:46;;;;;;;21.50;10.00;;;;;;;3.41;73.55;100701.14;80793;1295;3056017;-63
2023/01/22 04:21:34;;;;;;;24.00;10.20;;;;;;;3.14;74.27;100699.52;80624;1296;3049933;-64
2023/01/22 04:24:03;;;;;;;25.00;11.10;;;;;;;3.03;74.75;100702.40;81992;1295;3011069;-63
2023/01/22 04:26:33;;;;;;;28.70;10.30;;;;;;;2.96;74.85;100706.81;81459;1298;3011573;-63
2023/01/22 04:29:02;;;;;;;26.60;12.50;;;;;;;2.80;75.59;100711.28;82015;1296;3011468;-63
2023/01/22 04:31:29;;;;;;;22.40;10.70;;;;;;;2.89;75.84;100706.00;82009;1298;3011033;-63
2023/01/22 04:34:17;;;;;;;25.30;11.00;;;;;;;2.99;75.53;100705.73;80686;1295;3051625;-63
2023/01/22 04:37:12;;;;;;;25.30;10.70;;;;;;;2.89;75.25;100701.33;80766;1295;3055973;-63
2023/01/22 04:39:38;;;;;;;24.10;11.70;;;;;;;2.78;75.33;100707.32;81995;1301;3012782;-63
2023/01/22 04:42:05;;;;;;;25.70;11.70;;;;;;;2.67;75.61;100708.96;82057;1295;3011569;-64
2023/01/22 04:44:33;;;;;;;29.30;13.80;;;;;;;2.55;76.39;100711.83;80760;1301;3027187;-64
2023/01/22 04:47:00;;;;;;;33.50;13.90;;;;;;;2.49;77.04;100714.12;82018;1297;3018322;-63
2023/01/22 04:49:27;;;;;;;36.20;13.60;;;;;;;2.41;76.85;100718.34;82037;1295;3011297;-63
2023/01/22 04:51:56;;;;;;;27.50;13.00;;;;;;;2.32;77.55;100720.81;80730;1295;3055640;-64
2023/01/22 04:54:23;;;;;;;31.00;11.20;;;;;;;2.40;77.13;100726.81;81989;1295;3012821;-63
2023/01/22 04:56:50;;;;;;;26.20;11.50;;;;;;;2.51;77.04;100730.71;81986;1295;3011325;-63
2023/01/22 04:59:18;;;;;;;24.60;11.90;;;;;;;2.47;76.32;100733.33;80815;1296;3051499;-63
2023/01/22 05:01:45;;;;;;;26.00;12.40;;;;;;;2.45;76.03;100736.80;82028;1297;3012272;-63
2023/01/22 05:04:11;;;;;;;26.40;12.20;;;;;;;2.30;76.47;100736.05;81999;1295;3011232;-63
2023/01/22 05:06:40;;;;;;;31.50;11.80;;;;;;;2.21;76.66;100736.95;80771;1295;3026066;-63
2023/01/22 05:09:07;;;;;;;31.30;11.90;;;;;;;2.18;76.66;100737.67;82026;1295;3012611;-63
2023/01/22 05:11:50;;;;;;;25.40;10.20;;;;;;;2.20;76.94;100740.25;80723;1298;3050779;-63
2023/01/22 05:14:17;;;;;;;25.50;10.20;;;;;;;2.28;76.29;100742.64;82022;1298;3011395;-63
2023/01/22 05:16:49;;;;;;;27.90;10.70;;;;;;;2.10;76.53;100744.96;81459;1298;3011383;-63
2023/01/22 05:19:15;;;;;;;27.10;10.40;;;;;;;2.00;77.25;100748.30;82062;1295;3018194;-63
2023/01/22 05:21:42;;;;;;;26.80;10.50;;;;;;;2.09;77.34;100750.52;81968;1295;3011297;-63
2023/01/22 05:24:13;;;;;;;24.40;10.00;;;;;;;2.15;76.65;100752.02;80752;1295;3048354;-63
2023/01/22 05:26:40;;;;;;;22.80;9.80;;;;;;;2.11;76.71;100751.38;81975;1295;3012755;-63
2023/01/22 05:29:13;;;;;;;21.20;9.70;;;;;;;2.04;76.36;100755.89;80760;1296;3051889;-63
2023/01/22 05:31:42;;;;;;;23.90;10.60;;;;;;;1.97;76.68;100758.86;82054;1298;3011321;-63
2023/01/22 05:34:24;;;;;;;25.40;9.40;;;;;;;2.05;76.84;100765.39;80742;1295;3067985;-63
2023/01/22 05:36:55;;;;;;;19.50;9.20;;;;;;;2.07;76.80;100767.80;81992;1295;3011388;-63
2023/01/22 05:39:25;;;;;;;24.00;10.40;;;;;;;2.11;76.84;100768.99;80748;1295;3056118;-63
2023/01/22 05:41:53;;;;;;;25.20;10.50;;;;;;;2.16;76.74;100771.92;82001;1295;3013094;-63
2023/01/22 05:44:20;;;;;;;19.00;9.40;;;;;;;2.18;76.61;100775.17;82020;1295;3011347;-63
2023/01/22 05:46:52;;;;;;;23.30;10.40;;;;;;;2.23;76.81;100776.02;80736;1297;3051871;-63
2023/01/22 05:49:19;;;;;;;26.50;9.80;;;;;;;2.29;76.42;100778.06;82037;1295;3011136;-63
2023/01/22 05:51:47;;;;;;;26.50;9.60;;;;;;;2.25;75.98;100781.89;82010;1295;3011401;-64
2023/01/22 05:54:15;;;;;;;22.20;9.30;;;;;;;2.30;75.73;100780.14;80741;1295;3056534;-63
2023/01/22 05:56:43;;;;;;;20.10;9.10;;;;;;;2.32;75.60;100783.58;82017;1295;3012386;-63
2023/01/22 05:59:11;;;;;;;21.50;9.40;;;;;;;2.35;75.75;100782.70;82022;1295;3011421;-63
2023/01/22 06:01:40;;;;;;;22.20;8.90;;;;;;;2.41;75.30;100785.60;80744;1298;3052838;-63
2023/01/22 06:04:08;;;;;;;20.70;9.60;;;;;;;2.44;75.11;100786.96;82042;1297;3013226;-64
2023/01/22 06:06:35;;;;;;;20.50;9.30;;;;;;;2.42;75.06;100787.84;82060;1295;3011004;-63
2023/01/22 06:09:04;;;;;;;18.60;7.80;;;;;;;2.33;74.90;100791.54;80788;1295;3055563;-65
2023/01/22 06:11:34;;;;;;;23.10;9.00;;;;;;;2.31;74.96;100794.31;81984;1295;3011349;-64
2023/01/22 06:14:03;;;;;;;20.30;8.10;;;;;;;2.24;75.01;100792.61;80705;1298;3025199;-63
2023/01/22 06:16:29;;;;;;;18.60;8.00;;;;;;;2.39;74.83;100792.54;82029;1298;3012523;-63
2023/01/22 06:19:16;;;;;;;17.90;8.40;;;;;;;2.26;74.43;100796.41;80772;1295;3051458;-63
2023/01/22 06:21:52;;;;;;;19.30;7.90;;;;;;;2.37;74.91;100801.55;80728;1296;3069081;-63
2023/01/22 06:24:22;;;;;;;24.00;8.50;;;;;;;2.45;74.73;100803.04;82007;1295;3011233;-63
2023/01/22 06:26:50;;;;;;;15.70;7.60;;;;;;;2.48;74.39;100801.46;80782;1295;3025273;-63
2023/01/22 06:29:18;;;;;;;17.60;8.10;;;;;;;2.48;73.90;100803.04;82034;1295;3012520;-63
2023/01/22 06:31:47;;;;;;;22.20;9.00;;;;;;;2.34;74.10;100804.49;81483;1295;3011644;-63
2023/01/22 06:34:17;;;;;;;19.70;7.80;;;;;;;2.29;74.22;100802.96;82013;1295;3011174;-63
2023/01/22 06:36:46;;;;;;;17.90;8.10;;;;;;;2.19;74.35;100808.02;81530;1295;3011414;-63
2023/01/22 06:39:14;;;;;;;15.20;7.00;;;;;;;2.31;74.42;100812.13;82039;1297;3012958;-63
2023/01/22 06:41:50;;;;;;;17.20;7.40;;;;;;;2.25;74.03;100819.05;80738;1295;3051672;-64
2023/01/22 06:44:17;;;;;;;19.30;7.40;;;;;;;2.22;74.74;100823.23;82040;1295;3012995;-63
2023/01/22 06:46:45;;;;;;;16.60;7.70;;;;;;;2.37;74.20;100826.77;81982;1295;3011310;-63
2023/01/22 06:49:21;;;;;;;19.30;7.40;;;;;;;2.28;73.86;100828.05;80711;1295;3049936;-63
2023/01/22 06:51:47;;;;;;;14.50;6.90;;;;;;;2.27;73.95;100828.90;82028;1295;3012649;-63
2023/01/22 06:54:14;;;;;;;16.20;6.80;;;;;;;2.29;73.61;100829.42;82005;1301;3011315;-64
2023/01/22 06:56:42;;;;;;;16.50;6.50;;;;;;;2.33;73.55;100834.23;80698;1296;3027459;-63
2023/01/22 06:59:10;;;;;;;13.20;6.30;;;;;;;2.30;73.41;100834.95;82001;1295;3012836;-63
2023/01/22 07:01:38;;;;;;;11.10;5.30;;;;;;;2.37;73.24;100836.29;82046;1295;3011066;-63
2023/01/22 07:04:06;;;;;;;13.70;5.40;;;;;;;2.35;72.98;100837.52;81001;1291;3048056;-63
2023/01/22 07:06:32;;;;;;;12.20;5.70;;;;;;;2.28;72.91;100835.98;82282;1294;3012985;-63
2023/01/22 07:08:59;;;;;;;14.10;6.40;;;;;;;2.37;73.24;100840.10;82253;1291;3011179;-63
2023/01/22 07:11:27;;;;;;;16.70;6.30;;;;;;;2.41;72.91;100842.16;81001;1291;3025736;-64
2023/01/22 07:13:54;;;;;;;17.50;6.70;;;;;;;2.35;72.91;100841.16;82302;1291;3018610;-63
2023/01/22 07:16:20;;;;;;;12.50;6.00;;;;;;;2.51;73.46;100843.30;82260;1291;3011425;-63
2023/01/22 07:18:49;;;;;;;16.70;6.10;;;;;;;2.55;72.72;100847.63;80997;1292;3050051;-63
2023/01/22 07:21:16;;;;;;;14.00;6.80;;;;;;;2.51;72.38;100845.38;82322;1293;3018155;-63
2023/01/22 07:23:42;;;;;;;15.10;6.50;;;;;;;2.55;72.54;100847.79;82233;1292;3011655;-63
2023/01/22 07:26:10;;;;;;;15.20;5.90;;;;;;;2.61;72.47;100850.02;81031;1291;3026354;-63
2023/01/22 07:28:37;;;;;;;12.90;6.10;;;;;;;2.66;71.94;100847.38;82240;1291;3012999;-63
2023/01/22 07:31:06;;;;;;;14.90;6.70;;;;;;;2.68;71.69;100845.46;82253;1291;3011560;-63
2023/01/22 07:33:34;;;;;;;13.50;5.30;;;;;;;2.64;71.12;100849.13;80885;1291;3049944;-64
2023/01/22 07:36:00;;;;;;;10.60;5.10;;;;;;;2.60;71.43;100844.48;82285;1291;3018309;-64
2023/01/22 07:38:27;;;;;;;12.40;6.00;;;;;;;2.65;71.17;100850.67;82227;1294;3011715;-63
2023/01/22 07:41:02;;;;;;;14.40;5.50;;;;;;;2.69;71.06;100845.45;80996;1291;3026497;-63
2023/01/22 07:43:31;;;;;;;15.20;5.20;;;;;;;2.70;70.81;100846.84;81726;1291;3011264;-63
2023/01/22 07:46:04;;;;;;;11.70;5.40;;;;;;;2.60;70.79;100853.81;82250;1292;3011461;-63
2023/01/22 07:48:32;;;;;;;14.60;5.10;;;;;;;2.66;70.92;100858.46;81028;1291;3048497;-63
2023/01/22 07:50:59;;;;;;;12.70;6.30;;;;;;;2.65;70.56;100861.56;82254;1291;3012361;-63
2023/01/22 07:53:26;;;;;;;11.10;4.90;;;;;;;2.81;70.88;100858.70;82245;1292;3011296;-63
2023/01/22 07:55:54;;;;;;;14.00;5.60;;;;;;;2.82;70.04;100864.92;81028;1292;3026511;-63
2023/01/22 07:58:20;;;;;;;14.60;5.70;;;;;;;2.70;69.97;100867.08;82297;1291;3011513;-64
2023/01/22 08:00:47;;;;;;;12.30;6.00;;;;;;;2.71;70.41;100869.85;82236;1292;3011367;-64
2023/01/22 08:03:15;;;;;;;13.70;5.00;;;;;;;2.84;70.20;100864.75;80999;1292;3026172;-64
2023/01/22 08:05:42;;;;;;;17.80;5.90;;;;;;;2.95;69.54;100865.88;82249;1291;3013023;-63
2023/01/22 08:08:16;;;;;;;16.10;5.10;;;;;;;3.03;69.72;100867.21;82254;1291;3011340;-64
2023/01/22 08:10:45;;;;;;;14.20;5.10;;;;;;;3.16;69.50;100870.42;80979;1292;3051621;-64
2023/01/22 08:13:11;;;;;;;10.90;5.20;;;;;;;3.14;68.66;100871.80;82262;1291;3012906;-64
2023/01/22 08:15:38;;;;;;;15.60;5.50;;;;;;;3.10;68.36;100872.00;82262;1291;3011432;-63
2023/01/22 08:18:06;;;;;;;13.30;5.00;;;;;;;3.11;68.46;100869.75;80954;1292;3026561;-63
2023/01/22 08:20:32;;;;;;;14.10;5.00;;;;;;;3.13;68.59;100873.20;82261;1291;3012434;-63
2023/01/22 08:23:00;;;;;;;12.60;5.20;;;;;;;3.00;68.64;100872.59;82217;1291;3011186;-64
2023/01/22 08:25:28;;;;;;;13.80;5.60;;;;;;;3.00;69.09;100875.20;80993;1292;3026366;-63
2023/01/22 08:27:54;;;;;;;18.10;5.90;;;;;;;3.01;68.89;100873.64;82289;1292;3018513;-64
2023/01/22 08:30:21;;;;;;;17.60;6.40;;;;;;;3.11;68.85;100876.16;82277;1291;3011444;-63
2023/01/22 08:32:50;;;;;;;14.90;6.60;;;;;;;3.11;68.22;100874.59;80986;1292;3026356;-65
2023/01/22 08:35:16;;;;;;;14.50;6.00;;;;;;;3.17;67.75;100876.98;82249;1292;3012373;-64
2023/01/22 08:37:43;;;;;;;23.30;5.90;;;;;;;3.13;67.70;100873.19;82214;1292;3011243;-64
2023/01/22 08:40:12;;;;;;;12.70;5.10;;;;;;;3.13;67.75;100869.40;80993;1292;3051158;-63
2023/01/22 08:42:39;;;;;;;10.80;4.20;;;;;;;3.14;67.49;100870.25;82287;1292;3012610;-63
2023/01/22 08:45:06;;;;;;;12.30;4.90;;;;;;;3.06;67.18;100863.39;82240;1292;3011770;-64
2023/01/22 08:47:34;;;;;;;13.40;5.00;;;;;;;2.93;67.65;100866.24;80980;1292;3048298;-64
2023/01/22 08:50:02;;;;;;;9.50;4.70;;;;;;;2.96;67.75;100862.25;82276;1292;3012360;-64
2023/01/22 08:52:29;;;;;;;11.00;4.80;;;;;;;2.98;67.77;100857.38;82235;1292;3011254;-64
2023/01/22 08:54:57;;;;;;;13.40;4.90;;;;;;;2.99;67.37;100855.48;80965;1295;3050899;-63
2023/01/22 08:57:23;;;;;;;12.80;4.90;;;;;;;3.14;67.44;100856.40;82223;1295;3012743;-65
2023/01/22 08:59:50;;;;;;;10.80;4.70;;;;;;;3.18;66.72;100859.31;82242;1291;3011248;-64
2023/01/22 09:02:20;;;;;;;15.00;4.80;;;;;;;3.24;66.65;100861.86;80988;1291;3049471;-64
2023/01/22 09:04:47;;;;;;;15.80;4.30;;;;;;;3.21;66.59;100861.73;82278;1291;3013007;-64
2023/01/22 09:07:13;;;;;;;11.40;4.20;;;;;;;3.13;66.41;100862.81;82204;1295;3011318;-64
2023/01/22 09:09:41;;;;;;;11.40;3.90;;;;;;;3.19;66.27;100862.77;81016;1291;3026159;-64
2023/01/22 09:12:08;;;;;;;10.40;4.30;;;;;;;3.29;66.30;100856.10;82278;1292;3018579;-64
2023/01/22 09:14:35;;;;;;;12.20;4.40;;;;;;;3.31;66.06;100857.13;82217;1292;3011295;-65
2023/01/22 09:17:03;;;;;;;8.70;3.80;;;;;;;3.34;65.61;100855.02;81004;1291;3026652;-64
2023/01/22 09:19:30;;;;;;;13.00;4.80;;;;;;;3.33;66.12;100851.73;82253;1292;3012553;-64
2023/01/22 09:21:56;;;;;;;14.70;4.50;;;;;;;3.27;65.74;100857.50;82194;1295;3011258;-63
2023/01/22 09:24:24;;;;;;;13.30;4.70;;;;;;;3.27;65.98;100856.12;80995;1294;3026333;-64
2023/01/22 09:26:51;;;;;;;11.50;4.10;;;;;;;3.25;65.94;100854.05;82246;1292;3012544;-64
2023/01/22 09:29:18;;;;;;;13.80;4.40;;;;;;;3.33;65.89;100850.37;82253;1291;3011507;-63
2023/01/22 09:31:45;;;;;;;12.50;3.90;;;;;;;3.23;65.67;100852.87;80971;1292;3025839;-63
2023/01/22 09:34:12;;;;;;;8.40;4.20;;;;;;;3.17;65.94;100853.08;82267;1291;3017874;-63
2023/01/22 09:36:40;;;;;;;11.20;4.90;;;;;;;3.28;65.95;100850.56;82212;1292;3011834;-64
2023/01/22 09:39:08;;;;;;;8.60;3.80;;;;;;;3.42;65.56;100846.98;80957;1294;3051413;-64
2023/01/22 09:41:39;;;;;;;16.90;4.60;;;;;;;3.38;65.28;100851.70;82272;1292;3012697;-64
2023/01/22 09:44:18;;;;;;;11.60;4.70;;;;;;;3.34;65.41;100845.33;80971;1291;3056970;-64
2023/01/22 09:47:00;;;;;;;9.90;4.30;;;;;;;3.29;65.74;100843.30;80993;1291;3048948;-63
2023/01/22 09:49:48;;;;;;;13.20;5.00;;;;;;;3.22;66.00;100840.41;80924;1292;3051766;-64
2023/01/22 09:52:17;;;;;;;15.10;4.70;;;;;;;3.28;66.08;100841.21;80942;1292;3049784;-64
2023/01/22 09:54:43;;;;;;;15.80;4.90;;;;;;;3.44;65.59;100840.56;82261;1292;3013626;-64
2023/01/22 09:57:11;;;;;;;9.90;4.80;;;;;;;3.40;65.14;100837.98;82238;1292;3011452;-64
2023/01/22 09:59:45;;;;;;;15.90;4.90;;;;;;;3.42;65.34;100833.14;80878;1292;3051041;-63
2023/01/22 10:02:29;;;;;;;13.30;4.60;;;;;;;3.37;65.26;100830.59;82266;1292;3011481;-64
2023/01/22 10:05:00;;;;;;;8.90;4.60;;;;;;;3.36;65.46;100827.29;80973;1292;3048732;-64
2023/01/22 10:07:31;;;;;;;12.30;5.00;;;;;;;3.29;65.38;100829.44;82254;1291;3011335;-63
2023/01/22 10:10:01;;;;;;;15.30;4.80;;;;;;;3.27;66.01;100826.51;80970;1294;3050033;-63
2023/01/22 10:12:28;;;;;;;9.00;4.70;;;;;;;3.33;65.77;100824.02;82189;1292;3011639;-64
2023/01/22 10:14:57;;;;;;;8.50;4.20;;;;;;;3.39;65.53;100825.53;81743;1291;3011255;-63
2023/01/22 10:17:29;;;;;;;10.80;4.00;;;;;;;3.40;65.32;100818.77;82233;1295;3012503;-64
2023/01/22 10:20:00;;;;;;;14.20;4.30;;;;;;;3.43;65.26;100817.87;80886;1292;3055836;-64
2023/01/22 10:22:26;;;;;;;11.20;4.30;;;;;;;3.41;64.92;100819.97;82161;1291;3011908;-63
2023/01/22 10:24:53;;;;;;;9.90;4.30;;;;;;;3.27;65.37;100820.45;82234;1292;3011303;-64
2023/01/22 10:27:42;;;;;;;8.80;4.50;;;;;;;3.27;65.60;100817.67;81008;1291;3051895;-64
2023/01/22 10:30:13;;;;;;;10.10;4.10;;;;;;;3.41;65.41;100814.95;80972;1295;3051730;-64
2023/01/22 10:32:40;;;;;;;13.50;4.90;;;;;;;3.45;65.08;100814.73;82232;1295;3011256;-63
2023/01/22 10:35:09;;;;;;;12.50;4.40;;;;;;;3.60;64.89;100813.55;81750;1292;3011387;-64
2023/01/22 10:37:45;;;;;;;10.80;4.00;;;;;;;3.77;64.61;100809.55;82293;1292;3012788;-63
2023/01/22 10:40:24;;;;;;;8.10;3.80;;;;;;;3.68;63.89;100810.52;80975;1291;3054548;-63
2023/01/22 10:43:08;;;;;;;7.00;3.70;;;;;;;3.60;63.85;100811.99;80993;1292;3049159;-64
2023/01/22 10:45:38;;;;;;;8.10;3.60;;;;;;;3.72;64.25;100804.42;80927;1297;3053918;-64
2023/01/22 10:48:14;;;;;;;11.00;4.60;;;;;;;3.65;63.56;100799.64;82221;1298;3011318;-63
2023/01/22 10:50:42;;;;;;;7.70;3.90;;;;;;;3.50;64.07;100804.11;80979;1292;3051174;-64
2023/01/22 10:53:33;;;;;;;10.40;4.40;;;;;;;3.29;64.82;100799.30;82178;1291;3011341;-64
2023/01/22 10:56:02;;;;;;;7.10;3.90;;;;;;;3.30;64.95;100802.05;80981;1295;3052346;-64
2023/01/22 10:58:36;;;;;;;14.40;4.00;;;;;;;3.38;64.65;100798.34;82255;1292;3012982;-63
2023/01/22 11:01:06;;;;;;;11.00;3.70;;;;;;;3.45;64.07;100798.80;80938;1297;3051812;-63
2023/01/22 11:03:35;;;;;;;10.20;4.40;;;;;;;3.48;64.00;100792.19;82249;1295;3011799;-64
2023/01/22 11:06:16;;;;;;;19.90;3.80;;;;;;;3.57;63.75;100791.74;80989;1291;3026007;-63
2023/01/22 11:08:52;;;;;;;17.10;4.80;;;;;;;3.47;63.86;100792.19;80961;1292;3052503;-63
2023/01/22 11:11:24;;;;;;;6.70;4.20;;;;;;;3.53;64.08;100789.87;81002;1291;3055949;-62
2023/01/22 11:14:10;;;;;;;13.30;4.50;;;;;;;3.65;63.77;100786.46;82182;1292;3011186;-62
2023/01/22 11:16:38;;;;;;;12.30;4.50;;;;;;;3.68;63.47;100785.57;80953;1291;3052091;-62
2023/01/22 11:19:15;;;;;;;12.30;4.60;;;;;;;3.74;63.48;100782.39;82248;1292;3017973;-64
2023/01/22 11:21:51;;;;;;;8.80;4.10;;;;;;;3.90;63.53;100782.02;80985;1292;3052961;-62
2023/01/22 11:24:48;;;;;;;13.10;4.70;;;;;;;3.73;63.11;100780.98;81005;1292;3067821;-61
2023/01/22 11:27:20;;;;;;;11.80;4.60;;;;;;;3.61;64.01;100785.64;80891;1295;3050583;-64
2023/01/22 11:30:02;;;;;;;15.20;5.10;;;;;;;3.73;63.91;100783.77;82251;1293;3011497;-62